M/T Vemaoil Xi — 9HWD7 — position and weather

sailwx.info

Track history (hours):
 
Tides and Currents Weather Stations Pressure Air Temp Water Temp Dewpoint Dewpoint Depression Visibility Wind Speed Wind Dir Waves Ship Positions

M/T Vemaoil Xi

Last reported at 2014-Aug-23 03:32 UTC. Time now 2014-Aug-23 17:23 UTC.
Position N 35°55' E 014°47'.

Length 105 m; draft 7 m.

Type: Tanker. MMSI: 215631000.

Date/timePositionNaut miles runAvg speedWind from/ knotsBaromVisibWave heightAir tempDewpointWater temp
2014-Aug-23 03:32N 35°55' E 014°47'1 0.8
2014-Aug-23 02:33N 35°54' E 014°47'1 0.9
2014-Aug-23 01:31N 35°53' E 014°47'0 0.0
2014-Aug-23 00:31N 35°53' E 014°47'0 0.0
2014-Aug-22 23:28N 35°53' E 014°47'0 0.0
2014-Aug-22 22:16N 35°53' E 014°47'0 0.0
2014-Aug-22 21:31N 35°53' E 014°47'0 0.0
2014-Aug-22 20:31N 35°53' E 014°47'0 0.0
2014-Aug-22 19:31N 35°53' E 014°47'0 0.0
2014-Aug-22 18:31N 35°53' E 014°47'9 0.9
2014-Aug-22 08:28N 35°50' E 014°36'0 0.0
2014-Aug-22 07:28N 35°50' E 014°36'0 0.0
2014-Aug-22 06:31N 35°50' E 014°36'0 0.0
2014-Aug-22 05:16N 35°50' E 014°36'0 0.0
2014-Aug-22 03:10N 35°50' E 014°36'0 0.0
2014-Aug-22 02:13N 35°50' E 014°36'0 0.0
2014-Aug-22 01:31N 35°50' E 014°36'0 0.0
2014-Aug-22 00:25N 35°50' E 014°36'0 0.0
2014-Aug-21 23:31N 35°50' E 014°36'0 0.0
2014-Aug-21 22:22N 35°50' E 014°36'1 1.3
2014-Aug-21 21:33N 35°51' E 014°36'5 4.7
2014-Aug-21 20:26N 35°53' E 014°30'0 0.0
2014-Aug-21 19:32N 35°53' E 014°30'0 0.0
2014-Aug-21 18:29N 35°53' E 014°30'0 0.0
2014-Aug-21 17:32N 35°53' E 014°30'0 0.0
2014-Aug-21 16:29N 35°53' E 014°30'0 0.0
2014-Aug-21 15:26N 35°53' E 014°30'0 0.0
2014-Aug-21 14:32N 35°53' E 014°30'3 3.0
2014-Aug-21 13:33N 35°54' E 014°34'7 7.5
2014-Aug-21 12:33N 35°53' E 014°43'3 2.7
2014-Aug-21 11:32N 35°52' E 014°47'0 0.0
2014-Aug-21 10:32N 35°52' E 014°47'0 0.0
2014-Aug-21 09:32N 35°52' E 014°47'0 0.0
2014-Aug-21 08:32N 35°52' E 014°47'0 0.0
2014-Aug-21 07:32N 35°52' E 014°47'0 0.0
2014-Aug-21 06:32N 35°52' E 014°47'0 0.0
2014-Aug-21 05:32N 35°52' E 014°47'0 0.0
2014-Aug-21 04:29N 35°52' E 014°47'0 0.0
2014-Aug-21 03:28N 35°52' E 014°47'0 0.0
2014-Aug-21 02:31N 35°52' E 014°47'0 0.0
2014-Aug-21 00:22N 35°52' E 014°47'0 0.0
2014-Aug-20 23:22N 35°52' E 014°47'0 0.0
2014-Aug-20 22:19N 35°52' E 014°47'0 0.0
2014-Aug-20 21:28N 35°52' E 014°47'0 0.0
2014-Aug-20 20:31N 35°52' E 014°47'0 0.0
2014-Aug-20 19:31N 35°52' E 014°47'0 0.0
2014-Aug-20 18:31N 35°52' E 014°47'0 0.0
2014-Aug-20 17:31N 35°52' E 014°47'0 0.0
2014-Aug-20 16:28N 35°52' E 014°47'1 1.1
2014-Aug-20 15:33N 35°53' E 014°46'8 7.5
2014-Aug-20 14:33N 35°54' E 014°36'5 3.2
2014-Aug-20 13:04N 35°54' E 014°31'0 0.0
2014-Aug-20 12:31N 35°54' E 014°31'0 0.2
2014-Aug-20 10:28N 35°54' E 014°31'3 3.4
2014-Aug-20 09:33N 35°54' E 014°35'7 7.4
2014-Aug-20 08:33N 35°54' E 014°44'2 2.0
2014-Aug-20 07:25N 35°54' E 014°46'0 0.0
2014-Aug-20 06:32N 35°54' E 014°46'0 0.0
2014-Aug-20 05:31N 35°54' E 014°46'0 0.0
2014-Aug-20 04:32N 35°54' E 014°46'2 1.8
2014-Aug-20 03:32N 35°54' E 014°49'0 0.1
2014-Aug-20 02:26N 35°54' E 014°49'0 0.0
2014-Aug-20 01:32N 35°54' E 014°49'0 0.0
2014-Aug-20 00:32N 35°54' E 014°49'0 0.0
2014-Aug-19 23:32N 35°54' E 014°49'0 0.0
2014-Aug-19 22:32N 35°54' E 014°49'3 3.0
2014-Aug-19 21:34N 35°52' E 014°47'7 7.1
2014-Aug-19 20:33N 35°50' E 014°39'5 4.3
2014-Aug-19 19:30N 35°49' E 014°33'0 0.0
2014-Aug-19 18:24N 35°49' E 014°33'0 0.0
2014-Aug-19 17:33N 35°49' E 014°33'0 0.0
2014-Aug-19 14:27N 35°49' E 014°33'0 0.0
2014-Aug-19 12:30N 35°49' E 014°33'0 0.0
2014-Aug-19 10:12N 35°49' E 014°33'0 0.0
2014-Aug-19 09:27N 35°49' E 014°33'0 0.0
2014-Aug-19 08:30N 35°49' E 014°33'0 0.0
2014-Aug-19 07:30N 35°49' E 014°33'0 0.0
2014-Aug-19 00:07N 35°49' E 014°33'2 3.1
2014-Aug-18 23:30N 35°49' E 014°35'4 2.1
2014-Aug-18 21:33N 35°50' E 014°40'3 0.4
2014-Aug-18 14:30N 35°49' E 014°36'1 0.0
2014-Aug-17 18:24N 35°50' E 014°36'2 2.9
2014-Aug-17 17:33N 35°49' E 014°33'0 0.0
2014-Aug-17 16:33N 35°49' E 014°33'0 0.0
2014-Aug-17 15:33N 35°49' E 014°33'0 0.0
2014-Aug-17 09:21N 35°49' E 014°33'0 0.0
2014-Aug-17 08:30N 35°49' E 014°33'12 0.9
2014-Aug-16 18:28N 35°52' E 014°48'2 2.5
2014-Aug-16 17:33N 35°53' E 014°45'0 0.1
2014-Aug-16 16:32N 35°53' E 014°45'0 0.0
2014-Aug-16 15:32N 35°53' E 014°45'0 0.0
2014-Aug-16 14:08N 35°53' E 014°45'8 2.1
2014-Aug-16 10:14N 35°49' E 014°36'3 0.2
2014-Aug-15 17:04N 35°49' E 014°33'0 0.0
2014-Aug-15 16:31N 35°49' E 014°33'2 2.2
2014-Aug-15 15:32N 35°49' E 014°35'0 0.0
2014-Aug-15 13:32N 35°49' E 014°35'0 0.0
2014-Aug-15 12:26N 35°49' E 014°35'0 0.0
2014-Aug-15 11:32N 35°49' E 014°35'0 0.0
2014-Aug-15 10:32N 35°49' E 014°35'0 0.0
2014-Aug-15 09:32N 35°49' E 014°35'0 0.0
2014-Aug-15 08:29N 35°49' E 014°35'0 0.0
2014-Aug-15 07:32N 35°49' E 014°35'0 0.0
2014-Aug-15 06:32N 35°49' E 014°35'0 0.0
2014-Aug-15 05:17N 35°49' E 014°35'0 0.0
2014-Aug-15 04:14N 35°49' E 014°35'0 0.0
2014-Aug-15 03:26N 35°49' E 014°35'0 0.0
2014-Aug-15 02:08N 35°49' E 014°35'0 0.0
2014-Aug-15 01:32N 35°49' E 014°35'0 0.0
2014-Aug-15 00:32N 35°49' E 014°35'0 0.0
2014-Aug-14 23:32N 35°49' E 014°35'0 0.0
2014-Aug-14 22:32N 35°49' E 014°35'0 0.1
2014-Aug-14 21:32N 35°49' E 014°35'0 0.0
2014-Aug-14 20:32N 35°49' E 014°35'0 0.0
2014-Aug-14 19:32N 35°49' E 014°35'5 4.9
2014-Aug-14 18:33N 35°51' E 014°41'4 3.5
2014-Aug-14 17:22N 35°52' E 014°46'0 0.1
2014-Aug-14 16:31N 35°52' E 014°46'0 0.0
2014-Aug-14 15:31N 35°52' E 014°46'0 0.0
2014-Aug-14 13:31N 35°52' E 014°46'0 0.0
2014-Aug-14 12:31N 35°52' E 014°46'0 0.1
2014-Aug-14 11:28N 35°52' E 014°46'5 6.0
2014-Aug-14 10:33N 35°50' E 014°40'4 1.6
2014-Aug-14 08:07N 35°49' E 014°35'  
Track history (hours):
 
Tides and Currents Weather Stations Pressure Air Temp Water Temp Dewpoint Dewpoint Depression Visibility Wind Speed Wind Dir Waves Ship Positions

M/T Vemaoil Xi

Last reported at 2014-Aug-23 03:32 UTC. Time now 2014-Aug-23 17:23 UTC.
Position N 35°55' E 014°47'.

Length 105 m; draft 7 m.

Type: Tanker. MMSI: 215631000.

Date/timePositionNaut miles runAvg speedWind from/ knotsBaromVisibWave heightAir tempDewpointWater temp
2014-Aug-23 03:32N 35°55' E 014°47'1 0.8
2014-Aug-23 02:33N 35°54' E 014°47'1 0.9
2014-Aug-23 01:31N 35°53' E 014°47'0 0.0
2014-Aug-23 00:31N 35°53' E 014°47'0 0.0
2014-Aug-22 23:28N 35°53' E 014°47'0 0.0
2014-Aug-22 22:16N 35°53' E 014°47'0 0.0
2014-Aug-22 21:31N 35°53' E 014°47'0 0.0
2014-Aug-22 20:31N 35°53' E 014°47'0 0.0
2014-Aug-22 19:31N 35°53' E 014°47'0 0.0
2014-Aug-22 18:31N 35°53' E 014°47'9 0.9
2014-Aug-22 08:28N 35°50' E 014°36'0 0.0
2014-Aug-22 07:28N 35°50' E 014°36'0 0.0
2014-Aug-22 06:31N 35°50' E 014°36'0 0.0
2014-Aug-22 05:16N 35°50' E 014°36'0 0.0
2014-Aug-22 03:10N 35°50' E 014°36'0 0.0
2014-Aug-22 02:13N 35°50' E 014°36'0 0.0
2014-Aug-22 01:31N 35°50' E 014°36'0 0.0
2014-Aug-22 00:25N 35°50' E 014°36'0 0.0
2014-Aug-21 23:31N 35°50' E 014°36'0 0.0
2014-Aug-21 22:22N 35°50' E 014°36'1 1.3
2014-Aug-21 21:33N 35°51' E 014°36'5 4.7
2014-Aug-21 20:26N 35°53' E 014°30'0 0.0
2014-Aug-21 19:32N 35°53' E 014°30'0 0.0
2014-Aug-21 18:29N 35°53' E 014°30'0 0.0
2014-Aug-21 17:32N 35°53' E 014°30'0 0.0
2014-Aug-21 16:29N 35°53' E 014°30'0 0.0
2014-Aug-21 15:26N 35°53' E 014°30'0 0.0
2014-Aug-21 14:32N 35°53' E 014°30'3 3.0
2014-Aug-21 13:33N 35°54' E 014°34'7 7.5
2014-Aug-21 12:33N 35°53' E 014°43'3 2.7
2014-Aug-21 11:32N 35°52' E 014°47'0 0.0
2014-Aug-21 10:32N 35°52' E 014°47'0 0.0
2014-Aug-21 09:32N 35°52' E 014°47'0 0.0
2014-Aug-21 08:32N 35°52' E 014°47'0 0.0
2014-Aug-21 07:32N 35°52' E 014°47'0 0.0
2014-Aug-21 06:32N 35°52' E 014°47'0 0.0
2014-Aug-21 05:32N 35°52' E 014°47'0 0.0
2014-Aug-21 04:29N 35°52' E 014°47'0 0.0
2014-Aug-21 03:28N 35°52' E 014°47'0 0.0
2014-Aug-21 02:31N 35°52' E 014°47'0 0.0
2014-Aug-21 00:22N 35°52' E 014°47'0 0.0
2014-Aug-20 23:22N 35°52' E 014°47'0 0.0
2014-Aug-20 22:19N 35°52' E 014°47'0 0.0
2014-Aug-20 21:28N 35°52' E 014°47'0 0.0
2014-Aug-20 20:31N 35°52' E 014°47'0 0.0
2014-Aug-20 19:31N 35°52' E 014°47'0 0.0
2014-Aug-20 18:31N 35°52' E 014°47'0 0.0
2014-Aug-20 17:31N 35°52' E 014°47'0 0.0
2014-Aug-20 16:28N 35°52' E 014°47'1 1.1
2014-Aug-20 15:33N 35°53' E 014°46'8 7.5
2014-Aug-20 14:33N 35°54' E 014°36'5 3.2
2014-Aug-20 13:04N 35°54' E 014°31'0 0.0
2014-Aug-20 12:31N 35°54' E 014°31'0 0.2
2014-Aug-20 10:28N 35°54' E 014°31'3 3.4
2014-Aug-20 09:33N 35°54' E 014°35'7 7.4
2014-Aug-20 08:33N 35°54' E 014°44'2 2.0
2014-Aug-20 07:25N 35°54' E 014°46'0 0.0
2014-Aug-20 06:32N 35°54' E 014°46'0 0.0
2014-Aug-20 05:31N 35°54' E 014°46'0 0.0
2014-Aug-20 04:32N 35°54' E 014°46'2 1.8
2014-Aug-20 03:32N 35°54' E 014°49'0 0.1
2014-Aug-20 02:26N 35°54' E 014°49'0 0.0
2014-Aug-20 01:32N 35°54' E 014°49'0 0.0
2014-Aug-20 00:32N 35°54' E 014°49'0 0.0
2014-Aug-19 23:32N 35°54' E 014°49'0 0.0
2014-Aug-19 22:32N 35°54' E 014°49'3 3.0
2014-Aug-19 21:34N 35°52' E 014°47'7 7.1
2014-Aug-19 20:33N 35°50' E 014°39'5 4.3
2014-Aug-19 19:30N 35°49' E 014°33'0 0.0
2014-Aug-19 18:24N 35°49' E 014°33'0 0.0
2014-Aug-19 17:33N 35°49' E 014°33'0 0.0
2014-Aug-19 14:27N 35°49' E 014°33'0 0.0
2014-Aug-19 12:30N 35°49' E 014°33'0 0.0
2014-Aug-19 10:12N 35°49' E 014°33'0 0.0
2014-Aug-19 09:27N 35°49' E 014°33'0 0.0
2014-Aug-19 08:30N 35°49' E 014°33'0 0.0
2014-Aug-19 07:30N 35°49' E 014°33'0 0.0
2014-Aug-19 00:07N 35°49' E 014°33'2 3.1
2014-Aug-18 23:30N 35°49' E 014°35'4 2.1
2014-Aug-18 21:33N 35°50' E 014°40'3 0.4
2014-Aug-18 14:30N 35°49' E 014°36'1 0.0
2014-Aug-17 18:24N 35°50' E 014°36'2 2.9
2014-Aug-17 17:33N 35°49' E 014°33'0 0.0
2014-Aug-17 16:33N 35°49' E 014°33'0 0.0
2014-Aug-17 15:33N 35°49' E 014°33'0 0.0
2014-Aug-17 09:21N 35°49' E 014°33'0 0.0
2014-Aug-17 08:30N 35°49' E 014°33'12 0.9
2014-Aug-16 18:28N 35°52' E 014°48'2 2.5
2014-Aug-16 17:33N 35°53' E 014°45'0 0.1
2014-Aug-16 16:32N 35°53' E 014°45'0 0.0
2014-Aug-16 15:32N 35°53' E 014°45'0 0.0
2014-Aug-16 14:08N 35°53' E 014°45'8 2.1
2014-Aug-16 10:14N 35°49' E 014°36'3 0.2
2014-Aug-15 17:04N 35°49' E 014°33'0 0.0
2014-Aug-15 16:31N 35°49' E 014°33'2 2.2
2014-Aug-15 15:32N 35°49' E 014°35'0 0.0
2014-Aug-15 13:32N 35°49' E 014°35'0 0.0
2014-Aug-15 12:26N 35°49' E 014°35'0 0.0
2014-Aug-15 11:32N 35°49' E 014°35'0 0.0
2014-Aug-15 10:32N 35°49' E 014°35'0 0.0
2014-Aug-15 09:32N 35°49' E 014°35'0 0.0
2014-Aug-15 08:29N 35°49' E 014°35'0 0.0
2014-Aug-15 07:32N 35°49' E 014°35'0 0.0
2014-Aug-15 06:32N 35°49' E 014°35'0 0.0
2014-Aug-15 05:17N 35°49' E 014°35'0 0.0
2014-Aug-15 04:14N 35°49' E 014°35'0 0.0
2014-Aug-15 03:26N 35°49' E 014°35'0 0.0
2014-Aug-15 02:08N 35°49' E 014°35'0 0.0
2014-Aug-15 01:32N 35°49' E 014°35'0 0.0
2014-Aug-15 00:32N 35°49' E 014°35'0 0.0
2014-Aug-14 23:32N 35°49' E 014°35'0 0.0
2014-Aug-14 22:32N 35°49' E 014°35'0 0.1
2014-Aug-14 21:32N 35°49' E 014°35'0 0.0
2014-Aug-14 20:32N 35°49' E 014°35'0 0.0
2014-Aug-14 19:32N 35°49' E 014°35'5 4.9
2014-Aug-14 18:33N 35°51' E 014°41'4 3.5
2014-Aug-14 17:22N 35°52' E 014°46'0 0.1
2014-Aug-14 16:31N 35°52' E 014°46'0 0.0
2014-Aug-14 15:31N 35°52' E 014°46'0 0.0
2014-Aug-14 13:31N 35°52' E 014°46'0 0.0
2014-Aug-14 12:31N 35°52' E 014°46'0 0.1
2014-Aug-14 11:28N 35°52' E 014°46'5 6.0
2014-Aug-14 10:33N 35°50' E 014°40'4 1.6
2014-Aug-14 08:07N 35°49' E 014°35'  

Dump ship's entire track history